Time;durP1;ratioP1;P1;durP2;ratioP2;P2;SDS_P1;SDS_P2;PMS_P1;PMS_P2;Temp;Humidity;BMP_temperature;BMP_pressure;BME280_temperature;BME280_humidity;BME280_pressure;Samples;Min_cycle;Max_cycle;Signal;HPM_P1;HPM_P2
2024/04/19 00:01:07;;;;;;;1.63;1.53;;;7.90;99.90;;;;;;6531203;22;20456;-70
2024/04/19 00:03:33;;;;;;;5.40;1.83;;;7.80;99.90;;;;;;6527931;21;20453;-69
2024/04/19 00:06:02;;;;;;;2.50;1.90;;;7.80;99.90;;;;;;6527410;22;20504;-69
2024/04/19 00:08:31;;;;;;;1.63;1.50;;;7.80;99.90;;;;;;6527693;22;20513;-69
2024/04/19 00:10:59;;;;;;;4.40;2.03;;;7.90;99.90;;;;;;6527442;22;20460;-69
2024/04/19 00:13:25;;;;;;;2.70;1.93;;;7.80;99.90;;;;;;6527409;21;20509;-68
2024/04/19 00:15:56;;;;;;;1.60;1.37;;;7.80;99.90;;;;;;6527135;22;20456;-69
2024/04/19 00:18:24;;;;;;;3.87;1.57;;;7.90;99.90;;;;;;6528122;22;20513;-70
2024/04/19 00:20:53;;;;;;;3.90;1.77;;;7.90;99.90;;;;;;6527759;22;20465;-70
2024/04/19 00:23:19;;;;;;;4.53;1.90;;;7.90;99.90;;;;;;6527466;21;20565;-70
2024/04/19 00:25:51;;;;;;;2.30;1.40;;;7.90;99.90;;;;;;6526914;22;20456;-68
2024/04/19 00:28:19;;;;;;;2.77;1.50;;;7.90;99.90;;;;;;6528911;22;20460;-69
2024/04/19 00:30:48;;;;;;;8.93;2.67;;;7.80;99.90;;;;;;6531689;22;20520;-69
2024/04/19 00:33:13;;;;;;;3.07;1.33;;;7.80;99.90;;;;;;6531905;22;20763;-69
2024/04/19 00:35:42;;;;;;;4.93;1.87;;;7.90;99.90;;;;;;6532431;21;20497;-69
2024/04/19 00:38:08;;;;;;;1.50;1.30;;;7.90;99.90;;;;;;6530888;22;20220;-69
2024/04/19 00:40:37;;;;;;;1.97;1.57;;;7.90;99.90;;;;;;6530161;22;20851;-69
2024/04/19 00:43:06;;;;;;;3.90;2.10;;;7.90;99.90;;;;;;6530822;22;20453;-69
2024/04/19 00:45:35;;;;;;;2.80;2.13;;;7.90;99.90;;;;;;6530343;21;20473;-69
2024/04/19 00:48:04;;;;;;;2.47;1.50;;;7.90;99.90;;;;;;6531610;22;20489;-69
2024/04/19 00:50:36;;;;;;;5.57;1.70;;;8.00;99.90;;;;;;6528103;22;20468;-69
2024/04/19 00:53:03;;;;;;;5.63;1.73;;;8.00;99.90;;;;;;6527092;22;20461;-69
2024/04/19 00:55:33;;;;;;;1.73;1.23;;;8.00;99.90;;;;;;6527914;21;20464;-71
2024/04/19 00:58:00;;;;;;;7.00;1.60;;;8.00;99.90;;;;;;6528261;22;20522;-69
2024/04/19 01:00:32;;;;;;;4.20;1.87;;;8.00;99.90;;;;;;6529940;22;20753;-69
2024/04/19 01:02:58;;;;;;;4.83;1.97;;;7.90;99.90;;;;;;6528244;22;20762;-69
2024/04/19 01:05:27;;;;;;;4.40;2.00;;;7.90;99.90;;;;;;6529406;21;20503;-69
2024/04/19 01:07:53;;;;;;;3.30;1.80;;;7.90;99.90;;;;;;6532579;22;20517;-69
2024/04/19 01:10:22;;;;;;;5.33;1.50;;;7.90;99.90;;;;;;6531723;22;20789;-69
2024/04/19 01:12:49;;;;;;;4.03;1.40;;;7.90;99.90;;;;;;6527168;22;20460;-69
2024/04/19 01:15:18;;;;;;;3.80;1.57;;;8.00;99.90;;;;;;6526722;21;20506;-68
2024/04/19 01:17:47;;;;;;;11.97;3.73;;;8.00;99.90;;;;;;6526050;22;20810;-70
2024/04/19 01:20:16;;;;;;;6.50;1.47;;;8.00;99.90;;;;;;6526247;22;20456;-69
2024/04/19 01:22:44;;;;;;;1.60;1.50;;;8.00;99.90;;;;;;6526343;22;20456;-69
2024/04/19 01:25:18;;;;;;;3.20;2.00;;;8.00;99.90;;;;;;6525759;21;20484;-69
2024/04/19 01:27:46;;;;;;;3.97;1.50;;;8.00;99.90;;;;;;6526686;22;20605;-69
2024/04/19 01:30:15;;;;;;;2.03;1.30;;;8.00;99.90;;;;;;6526605;22;20832;-69
2024/04/19 01:32:41;;;;;;;2.13;1.43;;;8.00;99.90;;;;;;6526545;22;20830;-68
2024/04/19 01:35:12;;;;;;;5.80;1.50;;;8.00;99.90;;;;;;6525808;21;20898;-70
2024/04/19 01:37:38;;;;;;;3.67;1.70;;;7.90;99.90;;;;;;6527129;22;20448;-69
2024/04/19 01:40:07;;;;;;;3.03;2.10;;;8.00;99.90;;;;;;6528264;22;20763;-68
2024/04/19 01:42:33;;;;;;;2.23;1.57;;;8.00;99.90;;;;;;6528673;22;20559;-68
2024/04/19 01:45:09;;;;;;;4.10;1.70;;;8.00;99.90;;;;;;6536730;21;20499;-69
2024/04/19 01:47:37;;;;;;;1.40;1.20;;;8.00;99.90;;;;;;6578927;21;20466;-69
2024/04/19 01:50:06;;;;;;;8.77;1.80;;;8.00;99.90;;;;;;6579405;21;20499;-69
2024/04/19 01:52:33;;;;;;;1.30;1.20;;;8.00;99.90;;;;;;6579608;21;20459;-69
2024/04/19 01:55:01;;;;;;;3.93;1.93;;;8.00;99.90;;;;;;6542457;21;20465;-70
2024/04/19 01:57:27;;;;;;;2.57;1.70;;;8.00;99.90;;;;;;6527164;22;20452;-70
2024/04/19 01:59:56;;;;;;;2.60;1.40;;;7.90;99.90;;;;;;6527352;22;20529;-69
2024/04/19 02:02:26;;;;;;;4.83;1.70;;;7.90;99.90;;;;;;6527274;22;20441;-69
2024/04/19 02:04:56;;;;;;;2.70;1.40;;;7.90;99.90;;;;;;6526989;21;20555;-70
2024/04/19 02:07:22;;;;;;;2.00;1.80;;;8.00;99.90;;;;;;6527278;22;20896;-70
2024/04/19 02:09:50;;;;;;;4.10;1.80;;;8.00;99.90;;;;;;6527083;21;20468;-70
2024/04/19 02:12:16;;;;;;;7.40;2.20;;;7.90;99.90;;;;;;6527188;21;20448;-69
2024/04/19 02:14:44;;;;;;;2.40;1.80;;;7.90;99.90;;;;;;6526723;21;20476;-69
2024/04/19 02:17:10;;;;;;;3.07;1.43;;;7.80;99.90;;;;;;6527245;22;20461;-70
2024/04/19 02:19:43;;;;;;;4.03;1.97;;;7.90;99.90;;;;;;6527362;22;20509;-70
2024/04/19 02:22:09;;;;;;;3.93;1.80;;;7.90;99.90;;;;;;6526998;22;20217;-69
2024/04/19 02:24:38;;;;;;;3.90;1.70;;;7.80;99.90;;;;;;6526528;21;20512;-69
2024/04/19 02:27:17;;;;;;;2.17;1.80;;;7.80;99.90;;;;;;6527258;22;20786;-69
2024/04/19 02:32:30;;;;;;;3.50;1.93;;;7.80;99.90;;;;;;6531164;22;20487;-70
2024/04/19 02:35:01;;;;;;;4.60;1.77;;;7.70;99.90;;;;;;6526971;21;20464;-70
2024/04/19 02:37:29;;;;;;;3.43;1.50;;;7.70;99.90;;;;;;6529590;22;20818;-70
2024/04/19 02:39:58;;;;;;;2.47;1.90;;;7.70;99.90;;;;;;6528782;22;20611;-69
2024/04/19 02:42:26;;;;;;;3.47;1.70;;;7.60;99.90;;;;;;6527331;22;20456;-70
2024/04/19 02:44:55;;;;;;;2.20;2.00;;;7.60;99.90;;;;;;6526224;21;20791;-68
2024/04/19 02:47:23;;;;;;;7.40;1.90;;;7.60;99.90;;;;;;6527257;22;20456;-70
2024/04/19 02:49:49;;;;;;;3.63;1.57;;;7.60;99.90;;;;;;6526605;22;20448;-69
2024/04/19 02:52:20;;;;;;;3.10;2.13;;;7.60;99.90;;;;;;6526908;22;20507;-70
2024/04/19 02:54:49;;;;;;;4.90;1.90;;;7.60;99.90;;;;;;6526407;21;20229;-69
2024/04/19 02:57:17;;;;;;;2.97;2.00;;;7.60;99.90;;;;;;6526824;22;20505;-69
2024/04/19 02:59:46;;;;;;;7.20;2.00;;;7.60;99.90;;;;;;6526976;22;20456;-70
2024/04/19 03:02:14;;;;;;;2.07;1.60;;;7.60;99.90;;;;;;6527010;22;20460;-69
2024/04/19 03:04:43;;;;;;;12.80;2.20;;;7.60;99.90;;;;;;6525863;21;20681;-70
2024/04/19 03:07:12;;;;;;;3.70;1.90;;;7.60;99.90;;;;;;6526646;22;20504;-69
2024/04/19 03:09:43;;;;;;;4.43;1.57;;;7.60;99.90;;;;;;6526402;22;20501;-69
2024/04/19 03:12:11;;;;;;;4.73;1.87;;;7.60;99.90;;;;;;6526651;22;20505;-69
2024/04/19 03:14:40;;;;;;;3.30;2.03;;;7.60;99.90;;;;;;6525979;21;20517;-69
2024/04/19 03:17:08;;;;;;;1.90;1.63;;;7.60;99.90;;;;;;6526322;22;20497;-72
2024/04/19 03:19:38;;;;;;;2.47;1.77;;;7.60;99.90;;;;;;6526473;22;20452;-69
2024/04/19 03:22:07;;;;;;;2.70;1.53;;;7.60;99.90;;;;;;6526301;22;20456;-72
2024/04/19 03:24:35;;;;;;;5.80;2.00;;;7.60;99.90;;;;;;6526422;21;20495;-71
2024/04/19 03:27:07;;;;;;;5.53;1.93;;;7.60;99.90;;;;;;6526751;22;20613;-70
2024/04/19 03:29:35;;;;;;;4.50;2.30;;;7.60;99.90;;;;;;6526219;22;20938;-69
2024/04/19 03:32:04;;;;;;;1.63;1.53;;;7.60;99.90;;;;;;6526721;22;20499;-70
2024/04/19 03:34:32;;;;;;;5.67;1.97;;;7.60;99.90;;;;;;6525730;21;20465;-69
2024/04/19 03:37:01;;;;;;;9.10;2.10;;;7.60;99.90;;;;;;6526311;22;20505;-69
2024/04/19 03:39:29;;;;;;;4.87;2.20;;;7.60;99.90;;;;;;6526401;22;20460;-69
2024/04/19 03:41:58;;;;;;;2.80;1.47;;;7.70;99.90;;;;;;6526154;22;20444;-70
2024/04/19 03:47:14;;;;;;;5.53;1.80;;;7.70;99.90;;;;;;6530124;22;20933;-69
2024/04/19 03:49:42;;;;;;;2.40;1.70;;;7.70;99.90;;;;;;6526133;22;20457;-70
2024/04/19 03:52:13;;;;;;;2.83;2.10;;;7.60;99.90;;;;;;6526680;22;20501;-70
2024/04/19 03:54:41;;;;;;;5.10;1.83;;;7.60;99.90;;;;;;6527040;21;20472;-70
2024/04/19 03:57:10;;;;;;;3.33;2.20;;;7.60;99.90;;;;;;6527228;22;20452;-70
2024/04/19 03:59:41;;;;;;;2.33;1.70;;;7.60;99.90;;;;;;6527037;22;20449;-70
2024/04/19 04:02:10;;;;;;;2.90;1.70;;;7.60;99.90;;;;;;6526841;22;20456;-70
2024/04/19 04:04:36;;;;;;;3.40;1.80;;;7.70;99.90;;;;;;6525851;21;20505;-70
2024/04/19 04:07:04;;;;;;;4.87;2.20;;;7.80;99.90;;;;;;6526747;22;20444;-70
2024/04/19 04:09:33;;;;;;;4.07;2.50;;;7.80;99.90;;;;;;6526647;22;20269;-70
2024/04/19 04:12:01;;;;;;;4.57;1.87;;;7.80;99.90;;;;;;6526078;22;20508;-70
2024/04/19 04:14:30;;;;;;;2.40;1.80;;;7.80;99.90;;;;;;6525515;21;20477;-71
2024/04/19 04:17:01;;;;;;;4.03;2.13;;;7.80;99.90;;;;;;6526109;22;20468;-71
2024/04/19 04:19:29;;;;;;;5.43;2.27;;;7.80;99.90;;;;;;6482824;22;20503;-70
2024/04/19 04:22:00;;;;;;;9.10;3.30;;;7.80;99.90;;;;;;6526080;22;20759;-71
2024/04/19 04:24:30;;;;;;;7.97;3.90;;;7.90;99.90;;;;;;6525327;21;20504;-70
2024/04/19 04:26:58;;;;;;;8.40;3.00;;;7.90;99.90;;;;;;6526173;22;20528;-70
2024/04/19 04:29:29;;;;;;;5.70;2.37;;;7.90;99.90;;;;;;6525790;22;20769;-70
2024/04/19 04:31:57;;;;;;;4.67;2.13;;;7.90;99.90;;;;;;6525969;22;20460;-70
2024/04/19 04:34:31;;;;;;;3.73;2.60;;;8.00;99.90;;;;;;6524970;21;20513;-68
2024/04/19 04:37:00;;;;;;;3.80;2.67;;;8.00;99.90;;;;;;6525872;22;20498;-70
2024/04/19 04:39:28;;;;;;;6.57;2.67;;;8.00;99.90;;;;;;6526049;22;20627;-70
2024/04/19 04:41:57;;;;;;;4.57;3.10;;;8.00;99.90;;;;;;6525688;22;20508;-70
2024/04/19 04:44:32;;;;;;;3.80;2.70;;;8.00;99.90;;;;;;6525351;21;20509;-69
2024/04/19 04:47:02;;;;;;;5.10;2.93;;;8.00;99.90;;;;;;6525584;22;20464;-71
2024/04/19 04:49:33;;;;;;;7.63;2.60;;;8.00;99.90;;;;;;6525586;22;20998;-70
2024/04/19 04:51:59;;;;;;;4.23;2.40;;;8.10;99.90;;;;;;6526150;22;20499;-68
2024/04/19 04:54:31;;;;;;;5.10;3.03;;;8.10;99.90;;;;;;6525238;21;20841;-70
2024/04/19 04:57:00;;;;;;;2.87;2.40;;;8.10;99.90;;;;;;6526053;22;20252;-71
2024/04/19 04:59:28;;;;;;;6.20;3.80;;;8.10;99.90;;;;;;6525514;22;20501;-71
2024/04/19 05:01:57;;;;;;;8.07;2.53;;;8.10;99.90;;;;;;6525438;22;20464;-70
2024/04/19 05:04:25;;;;;;;2.37;2.17;;;8.10;99.90;;;;;;6525061;21;21099;-70
2024/04/19 05:06:57;;;;;;;6.57;2.83;;;8.10;99.90;;;;;;6525951;22;20512;-71
2024/04/19 05:09:25;;;;;;;6.27;3.33;;;8.10;99.90;;;;;;6525782;22;20460;-70
2024/04/19 05:11:54;;;;;;;4.93;2.23;;;8.10;99.90;;;;;;6525523;22;20497;-70
2024/04/19 05:14:22;;;;;;;6.80;2.80;;;8.20;99.90;;;;;;6526880;21;20507;-71
2024/04/19 05:16:50;;;;;;;5.57;3.17;;;8.20;99.90;;;;;;6527538;22;20463;-70
2024/04/19 05:19:19;;;;;;;4.17;2.80;;;8.10;99.90;;;;;;6527901;22;20839;-69
2024/04/19 05:21:48;;;;;;;5.30;3.67;;;8.10;99.90;;;;;;6528651;22;20489;-69
2024/04/19 05:24:19;;;;;;;7.83;3.23;;;8.00;99.90;;;;;;6527255;21;20980;-72
2024/04/19 05:26:47;;;;;;;9.40;3.40;;;7.90;99.90;;;;;;6527791;22;20452;-71
2024/04/19 05:29:16;;;;;;;8.00;2.90;;;7.90;99.90;;;;;;6527609;22;20508;-70
2024/04/19 05:31:44;;;;;;;4.57;3.20;;;7.80;99.90;;;;;;6528181;22;20501;-70
2024/04/19 05:34:13;;;;;;;4.57;3.17;;;7.80;99.90;;;;;;6526905;21;21064;-70
2024/04/19 05:36:41;;;;;;;8.53;3.83;;;7.80;99.90;;;;;;6527485;22;20456;-70
2024/04/19 05:39:10;;;;;;;8.93;3.40;;;7.80;99.90;;;;;;6527641;22;20505;-70
2024/04/19 05:41:41;;;;;;;9.27;4.53;;;7.80;99.90;;;;;;6527242;22;20444;-70
2024/04/19 05:44:10;;;;;;;4.50;3.10;;;7.80;99.90;;;;;;6527222;21;20465;-71
2024/04/19 05:46:38;;;;;;;6.53;3.40;;;7.90;99.90;;;;;;6527401;22;20461;-69
2024/04/19 05:49:07;;;;;;;5.03;3.10;;;7.90;99.90;;;;;;6527453;22;20452;-70
2024/04/19 05:51:35;;;;;;;6.67;4.00;;;8.00;99.90;;;;;;6527452;22;20460;-69
2024/04/19 05:54:04;;;;;;;4.30;3.80;;;8.00;99.90;;;;;;6526877;21;20464;-70
2024/04/19 05:56:32;;;;;;;7.87;3.87;;;8.00;99.90;;;;;;6527498;22;20463;-69
2024/04/19 05:59:04;;;;;;;5.77;3.50;;;8.10;99.90;;;;;;6527540;22;20487;-69
2024/04/19 06:01:32;;;;;;;5.97;3.83;;;8.10;99.90;;;;;;6527745;22;20456;-70
2024/04/19 06:04:01;;;;;;;4.00;3.00;;;8.10;99.90;;;;;;6527181;21;20512;-70
2024/04/19 06:06:29;;;;;;;7.73;4.07;;;8.20;99.90;;;;;;6527016;22;20460;-70
2024/04/19 06:08:58;;;;;;;6.93;4.67;;;8.20;99.90;;;;;;6527213;22;20505;-69
2024/04/19 06:11:26;;;;;;;10.67;3.80;;;8.10;99.90;;;;;;6527361;22;20822;-69
2024/04/19 06:13:55;;;;;;;9.50;3.40;;;8.20;99.90;;;;;;6526887;21;20467;-69
2024/04/19 06:16:26;;;;;;;6.30;3.43;;;8.20;99.90;;;;;;6527145;22;20803;-69
2024/04/19 06:18:52;;;;;;;5.17;3.60;;;8.20;99.90;;;;;;6526921;22;20449;-69
2024/04/19 06:21:20;;;;;;;6.70;3.33;;;8.20;99.90;;;;;;6527022;22;20511;-70
2024/04/19 06:23:49;;;;;;;4.90;3.00;;;8.20;99.90;;;;;;6526718;21;20539;-70
2024/04/19 06:26:17;;;;;;;6.50;3.10;;;8.20;99.90;;;;;;6526315;22;20457;-70
2024/04/19 06:28:46;;;;;;;4.30;3.67;;;8.20;99.90;;;;;;6527045;22;20452;-70
2024/04/19 06:31:15;;;;;;;2.90;2.60;;;8.10;99.90;;;;;;6526880;22;20460;-69
2024/04/19 06:33:46;;;;;;;4.57;2.73;;;8.00;99.90;;;;;;6526777;21;20472;-70
2024/04/19 06:36:15;;;;;;;4.47;3.07;;;8.00;99.90;;;;;;6527125;22;20544;-70
2024/04/19 06:38:43;;;;;;;4.40;2.40;;;7.90;99.90;;;;;;6526659;22;20460;-70
2024/04/19 06:41:12;;;;;;;5.73;2.70;;;7.90;99.90;;;;;;6527320;22;20806;-70
2024/04/19 06:43:40;;;;;;;6.07;3.70;;;7.90;99.90;;;;;;6527088;21;20464;-71
2024/04/19 06:46:06;;;;;;;3.60;2.80;;;7.90;99.90;;;;;;6526522;22;20472;-70
2024/04/19 06:48:34;;;;;;;5.73;3.30;;;7.80;99.90;;;;;;6527049;22;21017;-70
2024/04/19 06:51:06;;;;;;;6.00;4.07;;;7.80;99.90;;;;;;6527303;22;20456;-70
2024/04/19 06:53:37;;;;;;;4.03;3.40;;;7.70;99.90;;;;;;6527074;21;20452;-72
2024/04/19 06:56:06;;;;;;;4.00;2.93;;;7.60;99.90;;;;;;6527334;22;20512;-71
2024/04/19 06:58:34;;;;;;;3.83;2.90;;;7.50;99.90;;;;;;6527246;22;20509;-70
2024/04/19 07:01:07;;;;;;;8.23;4.60;;;7.50;99.90;;;;;;6527043;22;20449;-70
2024/04/19 07:03:38;;;;;;;4.77;3.57;;;7.50;99.90;;;;;;6526871;21;20460;-71
2024/04/19 07:06:13;;;;;;;4.37;2.97;;;7.60;99.90;;;;;;6527430;22;20513;-70
2024/04/19 07:08:44;;;;;;;4.10;3.00;;;7.60;99.90;;;;;;6527027;22;20464;-70
2024/04/19 07:11:17;;;;;;;6.27;3.20;;;7.60;99.90;;;;;;6527174;22;20457;-71
2024/04/19 07:13:47;;;;;;;7.70;2.80;;;7.50;99.90;;;;;;6526674;21;20525;-71
2024/04/19 07:16:16;;;;;;;4.50;2.60;;;7.40;99.90;;;;;;6527090;22;20460;-69
2024/04/19 07:18:47;;;;;;;4.37;2.90;;;7.40;99.90;;;;;;6527350;22;20452;-70
2024/04/19 07:21:19;;;;;;;5.60;3.10;;;7.30;99.90;;;;;;6527226;22;20512;-69
2024/04/19 07:23:47;;;;;;;6.40;2.90;;;7.20;99.90;;;;;;6527028;21;20765;-70
2024/04/19 07:26:16;;;;;;;4.13;2.73;;;7.30;99.90;;;;;;6526603;22;20501;-71
2024/04/19 07:28:44;;;;;;;4.53;2.80;;;7.30;99.90;;;;;;6526529;22;20453;-69
2024/04/19 07:31:13;;;;;;;6.97;3.60;;;7.40;99.90;;;;;;6526663;22;20448;-69
2024/04/19 07:33:42;;;;;;;8.27;3.17;;;7.30;99.90;;;;;;6526381;21;20469;-69
2024/04/19 07:36:11;;;;;;;4.50;2.90;;;7.30;99.90;;;;;;6525880;22;20452;-70
2024/04/19 07:38:42;;;;;;;4.20;2.87;;;7.30;99.90;;;;;;6526333;22;20485;-70
2024/04/19 07:41:10;;;;;;;6.23;3.00;;;7.30;99.90;;;;;;6526490;22;20461;-71
2024/04/19 07:43:39;;;;;;;4.43;3.10;;;7.40;99.90;;;;;;6526488;21;20845;-69
2024/04/19 07:46:05;;;;;;;4.07;3.30;;;7.40;99.90;;;;;;6525848;22;20601;-71
2024/04/19 07:48:36;;;;;;;5.23;3.63;;;7.50;99.90;;;;;;6526281;22;20550;-71
2024/04/19 07:51:06;;;;;;;3.30;2.97;;;7.60;99.90;;;;;;6526057;22;20755;-70
2024/04/19 07:53:35;;;;;;;5.80;3.40;;;7.70;99.90;;;;;;6526304;21;20765;-71
2024/04/19 07:56:07;;;;;;;4.70;2.70;;;7.70;99.90;;;;;;6525921;22;20457;-69
2024/04/19 07:58:35;;;;;;;3.50;2.90;;;7.60;99.90;;;;;;6527303;22;20453;-70
2024/04/19 08:01:04;;;;;;;7.00;3.03;;;7.70;99.90;;;;;;6526487;22;20456;-70
2024/04/19 08:03:33;;;;;;;5.30;3.50;;;7.60;99.90;;;;;;6526461;21;20811;-70
2024/04/19 08:06:01;;;;;;;5.10;2.60;;;7.60;99.90;;;;;;6526464;22;20509;-69
2024/04/19 08:08:30;;;;;;;3.90;3.30;;;7.50;99.90;;;;;;6527300;22;21044;-69
2024/04/19 08:10:59;;;;;;;6.30;3.90;;;7.50;99.90;;;;;;6527228;22;20491;-70
2024/04/19 08:13:30;;;;;;;3.73;3.27;;;7.50;99.90;;;;;;6526367;21;20460;-70
2024/04/19 08:16:00;;;;;;;3.20;2.90;;;7.50;99.90;;;;;;6525473;22;20509;-70
2024/04/19 08:18:28;;;;;;;4.87;3.50;;;7.50;99.90;;;;;;6526343;22;20508;-70
2024/04/19 08:20:57;;;;;;;5.00;3.40;;;7.40;99.90;;;;;;6526856;22;20444;-70
2024/04/19 08:23:26;;;;;;;4.67;3.90;;;7.40;99.90;;;;;;6525789;21;20512;-70
2024/04/19 08:26:03;;;;;;;4.90;3.07;;;7.40;99.90;;;;;;6525993;22;20818;-71
2024/04/19 08:28:39;;;;;;;10.47;3.67;;;7.30;99.90;;;;;;6526744;22;20448;-70
2024/04/19 08:31:14;;;;;;;5.00;3.53;;;7.30;99.90;;;;;;6526186;22;20489;-69
2024/04/19 08:33:45;;;;;;;9.90;3.53;;;7.30;99.90;;;;;;6526172;21;20496;-70
2024/04/19 08:36:19;;;;;;;5.43;3.50;;;7.40;99.90;;;;;;6525840;22;21033;-70
2024/04/19 08:38:53;;;;;;;5.60;4.23;;;7.50;99.90;;;;;;6526117;22;20516;-69
2024/04/19 08:41:24;;;;;;;6.97;4.30;;;7.50;99.90;;;;;;6526662;22;20944;-70
2024/04/19 08:43:56;;;;;;;5.07;4.03;;;7.50;99.90;;;;;;6526074;21;20592;-69
2024/04/19 08:46:26;;;;;;;4.53;4.07;;;7.50;99.90;;;;;;6525850;22;20977;-70
2024/04/19 08:48:57;;;;;;;10.60;4.03;;;7.50;99.90;;;;;;6527541;22;20454;-70
2024/04/19 08:51:26;;;;;;;4.90;3.60;;;7.50;99.90;;;;;;6528233;22;20814;-70
2024/04/19 08:53:57;;;;;;;6.70;4.90;;;7.60;99.90;;;;;;6528114;21;20535;-70
2024/04/19 08:56:28;;;;;;;6.57;5.00;;;7.60;99.90;;;;;;6528970;21;20989;-70
2024/04/19 08:59:01;;;;;;;4.27;3.87;;;7.60;99.90;;;;;;6529720;22;20879;-70
2024/04/19 09:01:30;;;;;;;5.47;4.40;;;7.70;99.90;;;;;;6528933;22;20593;-71
2024/04/19 09:03:59;;;;;;;10.03;4.00;;;7.70;99.90;;;;;;6528822;21;20615;-71
2024/04/19 09:06:29;;;;;;;17.17;5.13;;;7.80;99.90;;;;;;6527804;22;20456;-71
2024/04/19 09:08:59;;;;;;;8.30;4.87;;;7.80;99.90;;;;;;6528378;22;20460;-70
2024/04/19 09:11:27;;;;;;;5.40;4.57;;;7.80;99.90;;;;;;6528425;22;20513;-71
2024/04/19 09:13:59;;;;;;;7.40;6.23;;;7.90;99.90;;;;;;6527539;21;20464;-70
2024/04/19 09:16:28;;;;;;;8.47;4.60;;;7.90;99.90;;;;;;6528615;22;20566;-69
2024/04/19 09:18:56;;;;;;;7.40;5.50;;;7.80;99.90;;;;;;6528488;22;20495;-71
2024/04/19 09:21:25;;;;;;;9.83;5.57;;;7.80;99.90;;;;;;6528693;22;20457;-70
2024/04/19 09:23:55;;;;;;;7.13;5.20;;;7.80;99.90;;;;;;6527988;21;20572;-70
2024/04/19 09:26:24;;;;;;;9.93;4.90;;;7.90;99.90;;;;;;6527625;22;20949;-70
2024/04/19 09:28:54;;;;;;;5.37;4.50;;;7.90;99.90;;;;;;6527897;22;20568;-70
2024/04/19 09:31:25;;;;;;;7.90;5.00;;;8.00;99.90;;;;;;6528349;22;20456;-70
2024/04/19 09:33:57;;;;;;;7.40;4.50;;;8.00;99.90;;;;;;6528459;21;20476;-70
2024/04/19 09:36:26;;;;;;;8.67;4.77;;;8.10;99.90;;;;;;6527692;22;20460;-70
2024/04/19 09:38:55;;;;;;;5.30;4.53;;;8.10;99.90;;;;;;6527645;22;21022;-69
2024/04/19 09:41:27;;;;;;;5.13;4.30;;;8.00;99.90;;;;;;6528187;22;20452;-70
2024/04/19 09:43:58;;;;;;;7.77;4.80;;;8.10;99.90;;;;;;6528135;21;20464;-71
2024/04/19 09:46:31;;;;;;;5.00;3.87;;;8.00;99.90;;;;;;6527538;22;20464;-71
2024/04/19 09:49:03;;;;;;;9.57;5.37;;;8.00;99.90;;;;;;6533257;22;20519;-71
2024/04/19 09:51:37;;;;;;;8.40;6.80;;;7.80;99.90;;;;;;6531553;22;20575;-71
2024/04/19 09:54:10;;;;;;;6.00;4.73;;;7.70;99.90;;;;;;6529445;21;20464;-70
2024/04/19 09:56:52;;;;;;;5.20;3.73;;;7.70;99.90;;;;;;6528603;22;20511;-69
2024/04/19 09:59:22;;;;;;;4.07;3.00;;;7.70;99.90;;;;;;6527897;22;20520;-70
2024/04/19 10:01:54;;;;;;;5.13;4.63;;;7.70;99.90;;;;;;6528083;22;20456;-71
2024/04/19 10:04:23;;;;;;;5.73;3.37;;;7.60;99.90;;;;;;6528366;21;20457;-69
2024/04/19 10:06:53;;;;;;;6.80;4.13;;;7.60;99.90;;;;;;6528876;22;20508;-71
2024/04/19 10:09:25;;;;;;;4.70;4.00;;;7.60;99.90;;;;;;6528700;22;20870;-71
2024/04/19 10:11:55;;;;;;;4.20;3.43;;;7.60;99.90;;;;;;6528311;22;20507;-69
2024/04/19 10:14:29;;;;;;;6.97;5.17;;;7.70;99.90;;;;;;6527632;21;20961;-70
2024/04/19 10:17:00;;;;;;;5.87;4.00;;;7.60;99.90;;;;;;6528456;22;20456;-69
2024/04/19 10:19:33;;;;;;;5.40;3.13;;;7.70;99.90;;;;;;6528164;22;20593;-70
2024/04/19 10:22:03;;;;;;;3.67;2.70;;;7.70;99.90;;;;;;6527975;22;20460;-70
2024/04/19 10:24:33;;;;;;;5.73;3.20;;;7.60;99.90;;;;;;6527402;21;20464;-70
2024/04/19 10:27:06;;;;;;;5.07;3.10;;;7.60;99.90;;;;;;6527949;22;20888;-70
2024/04/19 10:29:37;;;;;;;3.20;2.80;;;7.60;99.90;;;;;;6528050;22;20460;-70
2024/04/19 10:32:09;;;;;;;6.03;2.83;;;7.60;99.90;;;;;;6528120;22;20505;-70
2024/04/19 10:34:38;;;;;;;3.03;2.73;;;7.50;99.90;;;;;;6527282;21;20521;-72
2024/04/19 10:37:06;;;;;;;2.83;2.50;;;7.50;99.90;;;;;;6528304;22;20524;-71
2024/04/19 10:39:35;;;;;;;2.73;2.47;;;7.50;99.90;;;;;;6528050;22;20568;-70
2024/04/19 10:42:04;;;;;;;2.60;2.30;;;7.50;99.90;;;;;;6528024;22;20460;-69
2024/04/19 10:44:33;;;;;;;3.77;2.90;;;7.50;99.90;;;;;;6527904;21;20515;-70
2024/04/19 10:47:19;;;;;;;4.13;2.53;;;7.50;99.90;;;;;;6528223;22;20517;-72
2024/04/19 10:49:52;;;;;;;3.93;2.60;;;7.50;99.90;;;;;;6528665;22;20800;-73
2024/04/19 10:52:23;;;;;;;3.80;2.73;;;7.50;99.90;;;;;;6527984;22;20521;-69
2024/04/19 10:54:52;;;;;;;3.30;2.80;;;7.50;99.90;;;;;;6528727;21;20510;-70
2024/04/19 10:57:21;;;;;;;3.80;2.90;;;7.60;99.90;;;;;;6528622;22;20461;-69
2024/04/19 10:59:50;;;;;;;4.90;3.33;;;7.60;99.90;;;;;;6529040;22;20803;-70
2024/04/19 11:02:21;;;;;;;2.90;2.60;;;7.60;99.90;;;;;;6528238;22;20558;-69
2024/04/19 11:04:50;;;;;;;3.87;2.27;;;7.70;99.90;;;;;;6528675;21;20617;-70
2024/04/19 11:07:19;;;;;;;3.40;2.10;;;7.70;99.90;;;;;;6529061;22;20464;-70
2024/04/19 11:09:48;;;;;;;4.33;2.23;;;7.70;99.90;;;;;;6529766;22;20606;-69
2024/04/19 11:12:17;;;;;;;2.13;1.90;;;7.60;99.90;;;;;;6532212;22;20504;-72
2024/04/19 11:14:46;;;;;;;2.47;1.87;;;7.50;99.90;;;;;;6528405;21;20465;-71
2024/04/19 11:17:14;;;;;;;2.97;1.40;;;7.50;99.90;;;;;;6530295;22;20456;-72
2024/04/19 11:19:47;;;;;;;2.90;1.53;;;7.40;99.90;;;;;;6529050;22;20497;-70
2024/04/19 11:22:17;;;;;;;1.67;1.33;;;7.30;99.90;;;;;;6528423;22;20918;-71
2024/04/19 11:24:46;;;;;;;1.73;1.47;;;7.30;99.90;;;;;;6527088;21;20460;-71
2024/04/19 11:27:15;;;;;;;1.37;0.80;;;7.20;99.90;;;;;;6527687;22;20452;-72
2024/04/19 11:29:44;;;;;;;1.40;0.93;;;7.20;99.90;;;;;;6527406;22;20526;-72
2024/04/19 11:32:13;;;;;;;1.20;0.70;;;7.20;99.90;;;;;;6527292;22;20456;-70
2024/04/19 11:34:49;;;;;;;7.93;1.10;;;7.10;99.90;;;;;;6527002;21;20509;-71
2024/04/19 11:37:18;;;;;;;1.30;0.80;;;7.00;99.90;;;;;;6527100;22;20519;-72
2024/04/19 11:39:48;;;;;;;1.30;0.90;;;7.00;99.90;;;;;;6526976;22;20460;-71
2024/04/19 11:42:17;;;;;;;2.37;1.17;;;7.00;99.90;;;;;;6528029;22;20509;-72
2024/04/19 11:44:48;;;;;;;1.93;1.20;;;7.00;99.90;;;;;;6530296;21;20464;-72
2024/04/19 11:47:17;;;;;;;2.10;1.00;;;7.10;99.90;;;;;;6533178;22;20532;-71
2024/04/19 11:49:51;;;;;;;1.93;1.40;;;7.10;99.90;;;;;;6533506;22;20762;-69
2024/04/19 11:52:20;;;;;;;3.47;1.33;;;7.10;99.90;;;;;;6533775;21;20949;-71
2024/04/19 11:54:48;;;;;;;2.67;1.40;;;7.20;99.90;;;;;;6538621;21;20461;-70
2024/04/19 11:57:17;;;;;;;1.70;1.20;;;7.20;99.90;;;;;;6538894;22;20456;-71
2024/04/19 11:59:46;;;;;;;1.87;1.30;;;7.20;99.90;;;;;;6538001;22;20509;-70
2024/04/19 12:02:14;;;;;;;2.80;1.30;;;7.30;99.90;;;;;;6539469;22;20448;-70
2024/04/19 12:04:43;;;;;;;5.03;2.17;;;7.30;99.90;;;;;;6540640;21;20471;-70
2024/04/19 12:07:15;;;;;;;1.67;1.40;;;7.30;99.90;;;;;;6541092;22;20489;-71
2024/04/19 12:09:44;;;;;;;3.43;1.57;;;7.30;99.90;;;;;;6540117;22;20500;-70
2024/04/19 12:12:14;;;;;;;1.50;1.20;;;7.20;99.90;;;;;;6540665;22;20457;-72
2024/04/19 12:14:43;;;;;;;1.37;1.03;;;7.10;99.90;;;;;;6537939;21;20464;-69
2024/04/19 12:17:11;;;;;;;2.37;1.00;;;7.10;99.90;;;;;;6530900;22;20456;-71
2024/04/19 12:19:40;;;;;;;1.47;1.27;;;7.10;99.90;;;;;;6527326;22;20505;-71
2024/04/19 12:22:09;;;;;;;1.77;1.23;;;7.00;99.90;;;;;;6527118;22;20453;-70
2024/04/19 12:24:40;;;;;;;1.63;1.10;;;7.10;99.90;;;;;;6527322;21;20472;-70
2024/04/19 12:27:09;;;;;;;1.60;1.13;;;7.10;99.90;;;;;;6527944;22;20512;-71
2024/04/19 12:29:38;;;;;;;1.17;0.90;;;7.10;99.90;;;;;;6531189;22;20883;-70
2024/04/19 12:32:08;;;;;;;2.17;0.90;;;7.10;99.90;;;;;;6533682;22;20449;-73
2024/04/19 12:34:38;;;;;;;1.00;0.80;;;7.10;99.90;;;;;;6533273;21;20473;-70
2024/04/19 12:37:07;;;;;;;1.07;0.87;;;7.00;99.90;;;;;;6539817;22;20452;-71
2024/04/19 12:39:36;;;;;;;1.00;0.73;;;7.00;99.90;;;;;;6545374;22;20485;-70
2024/04/19 12:42:08;;;;;;;1.10;0.70;;;7.00;99.90;;;;;;6545866;22;20496;-69
2024/04/19 12:44:39;;;;;;;1.40;0.90;;;6.90;99.90;;;;;;6544973;21;20460;-71
2024/04/19 12:47:08;;;;;;;1.23;0.80;;;6.90;99.90;;;;;;6544558;22;20469;-70
2024/04/19 12:49:37;;;;;;;1.00;0.70;;;7.00;99.90;;;;;;6545454;22;20464;-70
2024/04/19 12:52:07;;;;;;;1.67;1.00;;;7.00;99.90;;;;;;6544302;22;20453;-70
2024/04/19 12:54:35;;;;;;;1.47;0.90;;;7.10;99.90;;;;;;6544767;21;20544;-70
2024/04/19 12:57:07;;;;;;;4.00;1.40;;;7.20;99.90;;;;;;6545524;22;20539;-70
2024/04/19 12:59:36;;;;;;;1.60;1.40;;;7.30;99.90;;;;;;6545353;22;20507;-70
2024/04/19 13:02:06;;;;;;;2.50;1.00;;;7.40;99.90;;;;;;6542144;22;20824;-70
2024/04/19 13:04:34;;;;;;;12.10;1.83;;;7.60;99.90;;;;;;6541797;21;20468;-71
2024/04/19 13:07:03;;;;;;;1.70;1.00;;;7.80;99.90;;;;;;6542433;22;21053;-70
2024/04/19 13:09:32;;;;;;;2.00;1.73;;;7.80;99.90;;;;;;6542162;22;20444;-70
2024/04/19 13:12:00;;;;;;;1.73;1.50;;;7.90;99.90;;;;;;6542980;22;20444;-70
2024/04/19 13:14:32;;;;;;;2.20;1.83;;;8.00;99.90;;;;;;6542154;21;20784;-70